EDTY

Adolf Würth Airport

Schwäbisch Hall, Germany
TAF EDTY 171400Z 1715/1724 32008KT 9999 SCT040 TEMPO 1715/1722 32020G35KT TSRA BKN040CB
Issued Valid From Valid To
Aug-17 @ 14:00 UTC
(57 minutes ago)
Aug-17 @ 15:00 UTC
(in 3 minutes)
Aug-18 @ 00:00 UTC
(in 9 hours)
Aug-17 @ 15:00 to Aug-18 @ 00:00
TAF EDTY 171400Z 1715/1724 32008KT 9999 SCT040
Wind Visibility Clouds
320° at 8 knots 10,000+ meters
  • Scattered at 4,000' AGL
Temporary Aug-17 @ 15:00 to Aug-17 @ 22:00
TEMPO 1715/1722 32020G35KT TSRA BKN040CB
Wind Clouds Conditions
320° at 20 knots
 Gusting to 35 knots
  • Broken at 4,000' AGL
  • Thunderstorm
  • Rain
TAF EDTY 171400Z 1715/1724 32008KT 9999 SCT040 TEMPO 1715/1722 32020G35KT TSRA BKN040CB
Issued Aug-17 @ 14:00 UTC
(57 minutes ago)
Valid From Aug-17 @ 15:00 UTC
(in 3 minutes)
Valid To Aug-18 @ 00:00 UTC
(in 9 hours)
Aug-17 @ 15:00 - Aug-18 @ 00:00
Wind Visibility
320° at 8 knots 10,000+ meters
Clouds
  • Scattered at 4,000' AGL
Temporary Aug-17 @ 15:00 - Aug-17 @ 22:00
Wind
320° at 20 knots
 Gusting to 35 knots
Clouds
  • Broken at 4,000' AGL
Conditions
  • Thunderstorm
  • Rain